createdAt,value
2018-03-02T00:00:37.185Z,40.97
2018-03-02T00:03:04.606Z,48.43
2018-03-02T00:05:32.038Z,50.00
2018-03-02T00:07:59.466Z,48.33
2018-03-02T00:10:27.370Z,53.28
2018-03-02T00:12:54.787Z,49.27
2018-03-02T00:15:22.211Z,52.67
2018-03-02T00:17:49.630Z,56.90
2018-03-02T00:20:17.053Z,52.90
2018-03-02T00:22:44.466Z,51.60
2018-03-02T00:25:11.887Z,50.53
2018-03-02T00:27:39.304Z,56.43
2018-03-02T00:30:06.717Z,55.40
2018-03-02T00:32:34.133Z,55.03
2018-03-02T00:35:01.548Z,49.57
2018-03-02T00:37:28.970Z,49.65
2018-03-02T00:39:56.380Z,56.60
2018-03-02T00:42:23.803Z,56.77
2018-03-02T00:44:51.226Z,53.60
2018-03-02T00:47:18.641Z,56.00
2018-03-02T00:49:46.054Z,52.13
2018-03-02T00:52:13.478Z,54.50
2018-03-02T00:54:40.885Z,47.57
2018-03-02T00:57:08.310Z,55.67
2018-03-02T00:59:35.716Z,47.33
2018-03-02T01:02:03.141Z,51.77
2018-03-02T01:04:30.557Z,52.92
2018-03-02T01:06:58.905Z,60.47
2018-03-02T01:09:26.304Z,54.90
2018-03-02T01:11:53.736Z,51.77
2018-03-02T01:14:21.160Z,58.43
2018-03-02T01:16:48.574Z,54.67
2018-03-02T01:19:15.985Z,54.23
2018-03-02T01:21:43.402Z,61.10
2018-03-02T01:24:10.805Z,46.30
2018-03-02T01:26:38.230Z,42.10
2018-03-02T01:29:05.663Z,61.00
2018-03-02T01:31:33.091Z,56.80
2018-03-02T01:34:00.509Z,62.77
2018-03-02T01:36:27.931Z,55.30
2018-03-02T01:38:55.341Z,58.63
2018-03-02T01:41:22.764Z,50.13
2018-03-02T01:43:50.165Z,69.07
2018-03-02T01:46:17.605Z,68.50
2018-03-02T01:48:45.018Z,67.07
2018-03-02T01:51:24.403Z,61.20
2018-03-02T01:53:51.816Z,64.40
2018-03-02T01:56:19.223Z,56.97
2018-03-02T01:58:46.648Z,63.00
2018-03-02T02:01:14.067Z,60.37
2018-03-02T02:03:41.489Z,50.67
2018-03-02T02:06:08.906Z,59.80
2018-03-02T02:08:36.347Z,68.27
2018-03-02T02:11:03.758Z,56.57
2018-03-02T02:13:31.172Z,60.60
2018-03-02T02:15:58.581Z,58.20
2018-03-02T02:18:26.846Z,51.47
2018-03-02T02:20:54.266Z,58.80
2018-03-02T02:23:22.133Z,66.70
2018-03-02T02:25:49.549Z,53.67
2018-03-02T02:28:16.971Z,63.93
2018-03-02T02:30:44.385Z,64.60
2018-03-02T02:33:11.806Z,66.80
2018-03-02T02:35:39.219Z,53.13
2018-03-02T02:38:06.637Z,63.03
2018-03-02T02:40:34.037Z,67.03
2018-03-02T02:43:01.720Z,66.37
2018-03-02T02:45:29.147Z,64.23
2018-03-02T02:47:56.556Z,60.03
2018-03-02T02:50:24.005Z,60.70
2018-03-02T02:52:51.412Z,62.47
2018-03-02T02:55:18.821Z,62.53
2018-03-02T02:57:46.234Z,43.20
2018-03-02T03:00:13.657Z,60.23
2018-03-02T03:02:41.067Z,64.15
2018-03-02T03:05:08.492Z,62.07
2018-03-02T03:07:35.929Z,63.97
2018-03-02T03:10:03.357Z,63.72
2018-03-02T03:12:30.752Z,60.33
2018-03-02T03:14:58.180Z,62.40
2018-03-02T03:17:25.603Z,51.72
2018-03-02T03:19:53.021Z,64.13
2018-03-02T03:22:20.428Z,70.03
2018-03-02T03:24:47.847Z,57.43
2018-03-02T03:27:15.253Z,58.60
2018-03-02T03:29:42.673Z,64.87
2018-03-02T03:32:10.093Z,64.03
2018-03-02T03:34:37.506Z,60.67
2018-03-02T03:37:04.937Z,71.23
2018-03-02T03:39:32.346Z,64.87
2018-03-02T03:41:59.756Z,65.10
2018-03-02T03:44:27.170Z,67.00
2018-03-02T03:46:54.582Z,62.10
2018-03-02T03:49:21.994Z,54.03
2018-03-02T03:51:49.406Z,68.70
2018-03-02T03:54:16.822Z,68.23
2018-03-02T03:56:44.232Z,68.20
2018-03-02T03:59:12.172Z,56.60
2018-03-02T04:01:39.583Z,75.00
2018-03-02T04:04:07.007Z,63.97
2018-03-02T04:06:34.461Z,64.40
2018-03-02T04:09:01.883Z,67.50
2018-03-02T04:11:29.297Z,59.13
2018-03-02T04:13:56.718Z,62.57
2018-03-02T04:16:24.142Z,65.70
2018-03-02T04:18:51.549Z,66.90
2018-03-02T04:21:18.964Z,66.90
2018-03-02T04:23:46.381Z,64.40
2018-03-02T04:26:13.801Z,53.13
2018-03-02T04:28:41.222Z,52.63
2018-03-02T04:31:08.642Z,65.50
2018-03-02T04:33:36.066Z,58.37
2018-03-02T04:36:03.504Z,69.50
2018-03-02T04:38:30.902Z,70.70
2018-03-02T04:40:58.313Z,67.07
2018-03-02T04:43:25.712Z,64.20
2018-03-02T04:45:53.132Z,71.77
2018-03-02T04:48:20.541Z,62.30
2018-03-02T04:50:47.960Z,66.47
2018-03-02T04:53:15.356Z,51.30
2018-03-02T04:55:42.780Z,60.13
2018-03-02T04:58:10.188Z,64.50
2018-03-02T05:00:37.613Z,64.07
2018-03-02T05:03:05.054Z,69.17
2018-03-02T05:05:32.464Z,67.13
2018-03-02T05:07:59.868Z,67.23
2018-03-02T05:10:27.295Z,71.37
2018-03-02T05:12:54.698Z,62.10
2018-03-02T05:15:22.116Z,63.70
2018-03-02T05:17:49.541Z,64.87
2018-03-02T05:20:16.962Z,67.85
2018-03-02T05:22:44.380Z,55.27
2018-03-02T05:25:11.807Z,75.87
2018-03-02T05:27:39.209Z,62.17
2018-03-02T05:30:07.416Z,67.68
2018-03-02T05:32:34.840Z,76.50
2018-03-02T05:35:02.248Z,64.20
2018-03-02T05:37:29.673Z,72.90
2018-03-02T05:39:57.085Z,72.17
2018-03-02T05:42:24.522Z,67.47
2018-03-02T05:44:52.222Z,66.03
2018-03-02T05:47:19.638Z,69.90
2018-03-02T05:49:47.046Z,67.37
2018-03-02T05:52:14.467Z,62.67
2018-03-02T05:54:41.864Z,66.83
2018-03-02T05:57:09.299Z,56.15
2018-03-02T05:59:36.712Z,55.70
2018-03-02T06:02:04.129Z,59.97
2018-03-02T06:04:31.553Z,77.70
2018-03-02T06:06:59.361Z,71.67
2018-03-02T06:09:26.710Z,71.32
2018-03-02T06:11:54.137Z,73.60
2018-03-02T06:14:21.551Z,62.57
2018-03-02T06:16:48.980Z,69.30
2018-03-02T06:19:16.394Z,57.33
2018-03-02T06:21:43.796Z,62.90
2018-03-02T06:24:11.226Z,66.12
2018-03-02T06:26:39.549Z,69.68
2018-03-02T06:29:06.978Z,65.40
2018-03-02T06:31:34.404Z,70.20
2018-03-02T06:34:01.882Z,60.70
2018-03-02T06:36:29.276Z,59.43
2018-03-02T06:38:57.389Z,69.80
2018-03-02T06:41:24.797Z,66.47
2018-03-02T06:43:52.228Z,63.90
2018-03-02T06:46:19.629Z,58.23
2018-03-02T06:48:47.048Z,57.87
2018-03-02T06:51:14.463Z,64.37
2018-03-02T06:53:41.885Z,65.73
2018-03-02T06:56:09.285Z,68.00
2018-03-02T06:58:36.704Z,62.78
2018-03-02T07:01:04.122Z,59.50
2018-03-02T07:03:31.545Z,73.70
2018-03-02T07:05:58.957Z,74.67
2018-03-02T07:08:26.369Z,69.97
2018-03-02T07:10:53.784Z,65.70
2018-03-02T07:13:21.193Z,57.67
2018-03-02T07:15:48.755Z,61.03
2018-03-02T07:18:16.170Z,71.07
2018-03-02T07:20:43.584Z,69.03
2018-03-02T07:23:11.912Z,48.55
2018-03-02T07:25:39.319Z,67.43
2018-03-02T07:28:06.745Z,53.60
2018-03-02T07:30:34.157Z,68.60
2018-03-02T07:33:02.124Z,49.83
2018-03-02T07:35:29.538Z,62.40
2018-03-02T07:37:56.936Z,60.93
2018-03-02T07:40:24.352Z,61.23
2018-03-02T07:42:51.757Z,60.67
2018-03-02T07:45:19.185Z,63.30
2018-03-02T07:47:46.593Z,62.00
2018-03-02T07:50:14.009Z,57.40
2018-03-02T07:52:41.430Z,61.17
2018-03-02T07:55:08.847Z,58.23
2018-03-02T07:57:36.263Z,71.68
2018-03-02T08:00:03.691Z,56.10
2018-03-02T08:02:31.088Z,59.70
2018-03-02T08:04:58.518Z,67.70
2018-03-02T08:07:25.924Z,69.37
2018-03-02T08:09:53.338Z,68.60
2018-03-02T08:12:20.741Z,61.17
2018-03-02T08:14:48.162Z,53.92
2018-03-02T08:17:15.575Z,54.93
2018-03-02T08:19:42.985Z,51.40
2018-03-02T08:22:10.399Z,55.92
2018-03-02T08:24:37.801Z,60.93
2018-03-02T08:27:05.231Z,46.37
2018-03-02T08:29:32.632Z,55.20
2018-03-02T08:32:00.050Z,56.17
2018-03-02T08:34:27.480Z,50.93
2018-03-02T08:36:54.891Z,60.40
2018-03-02T08:39:22.307Z,65.33
2018-03-02T08:41:49.721Z,73.67
2018-03-02T08:44:17.129Z,73.67
2018-03-02T08:46:44.561Z,67.17
2018-03-02T08:49:11.954Z,64.83
2018-03-02T08:51:39.373Z,49.27
2018-03-02T08:54:06.793Z,67.10
2018-03-02T08:56:34.211Z,50.17
2018-03-02T08:59:01.618Z,59.00
2018-03-02T09:01:29.034Z,64.20
2018-03-02T09:03:56.453Z,60.60
2018-03-02T09:06:23.862Z,60.10
2018-03-02T09:08:51.287Z,51.85
2018-03-02T09:11:18.701Z,57.90
2018-03-02T09:13:46.991Z,56.75
2018-03-02T09:16:14.402Z,61.33
2018-03-02T09:18:41.810Z,61.73
2018-03-02T09:21:09.224Z,68.47
2018-03-02T09:23:36.648Z,57.70
2018-03-02T09:26:04.055Z,57.93
2018-03-02T09:28:31.475Z,67.85
2018-03-02T09:30:58.885Z,56.07
2018-03-02T09:33:26.298Z,55.47
2018-03-02T09:35:53.720Z,47.63
2018-03-02T09:38:21.131Z,55.63
2018-03-02T09:40:48.545Z,64.27
2018-03-02T09:43:15.948Z,57.67
2018-03-02T09:45:43.356Z,52.97
2018-03-02T09:48:10.772Z,58.97
2018-03-02T09:50:38.182Z,58.77
2018-03-02T09:53:05.599Z,62.13
2018-03-02T09:55:33.012Z,74.37
2018-03-02T09:58:00.437Z,60.97
2018-03-02T10:00:27.844Z,50.93
2018-03-02T10:02:55.269Z,54.85
2018-03-02T10:05:22.674Z,59.93
2018-03-02T10:07:50.097Z,57.10
2018-03-02T10:10:17.502Z,59.47
2018-03-02T10:12:44.917Z,67.40
2018-03-02T10:15:12.329Z,56.77
2018-03-02T10:17:39.748Z,53.33
2018-03-02T10:20:07.152Z,58.83
2018-03-02T10:22:34.569Z,45.17
2018-03-02T10:25:01.984Z,58.53
2018-03-02T10:27:29.402Z,63.80
2018-03-02T10:29:56.821Z,65.67
2018-03-02T10:32:24.232Z,51.10
2018-03-02T10:34:51.647Z,55.83
2018-03-02T10:37:19.072Z,62.38
2018-03-02T10:39:46.482Z,57.03
2018-03-02T10:42:13.893Z,63.77
2018-03-02T10:44:41.301Z,59.73
2018-03-02T10:47:08.704Z,63.93
2018-03-02T10:49:36.130Z,67.17
2018-03-02T10:52:03.541Z,72.03
2018-03-02T10:54:30.970Z,58.08
2018-03-02T10:56:58.378Z,62.57
2018-03-02T10:59:25.810Z,58.37
2018-03-02T11:01:55.058Z,56.40
2018-03-02T11:04:37.482Z,56.85
2018-03-02T11:07:04.891Z,64.40
2018-03-02T11:09:32.305Z,56.63
2018-03-02T11:11:59.721Z,62.03
2018-03-02T11:14:27.148Z,60.55
2018-03-02T11:16:54.553Z,56.47
2018-03-02T11:19:22.911Z,54.30
2018-03-02T11:21:50.325Z,54.00
2018-03-02T11:24:17.738Z,57.57
2018-03-02T11:26:45.151Z,61.77
2018-03-02T11:29:12.557Z,53.80
2018-03-02T11:31:39.964Z,61.53
2018-03-02T11:34:07.378Z,58.97
2018-03-02T11:36:34.782Z,54.42
2018-03-02T11:39:02.198Z,54.73
2018-03-02T11:41:29.603Z,63.53
2018-03-02T11:43:57.020Z,56.87
2018-03-02T11:46:24.426Z,54.57
2018-03-02T11:48:51.848Z,56.40
2018-03-02T11:51:19.246Z,55.63
2018-03-02T11:53:46.657Z,59.47
2018-03-02T11:56:14.059Z,55.13
2018-03-02T11:58:41.477Z,57.93
2018-03-02T12:01:08.880Z,62.10
2018-03-02T12:03:36.377Z,61.60
2018-03-02T12:06:03.796Z,78.13
2018-03-02T12:08:31.204Z,56.80
2018-03-02T12:10:58.608Z,74.40
2018-03-02T12:13:26.028Z,63.27
2018-03-02T12:15:53.443Z,55.27
2018-03-02T12:18:20.845Z,56.97
2018-03-02T12:20:48.261Z,67.00
2018-03-02T12:23:15.666Z,61.73
2018-03-02T12:25:43.082Z,56.93
2018-03-02T12:28:10.485Z,52.90
2018-03-02T12:30:37.894Z,119.00
2018-03-02T12:33:05.297Z,58.93
2018-03-02T12:35:32.750Z,59.47
2018-03-02T12:38:00.170Z,54.03
2018-03-02T12:40:27.580Z,58.73
2018-03-02T12:42:55.236Z,62.20
2018-03-02T12:45:22.654Z,49.57
2018-03-02T12:47:50.052Z,59.72
2018-03-02T12:50:17.476Z,52.30
2018-03-02T12:52:44.886Z,59.43
2018-03-02T12:55:12.339Z,55.20
2018-03-02T12:57:39.705Z,51.90
2018-03-02T13:00:07.120Z,59.53
2018-03-02T13:02:34.547Z,58.38
2018-03-02T13:05:01.973Z,56.73
2018-03-02T13:07:29.375Z,61.90
2018-03-02T13:09:56.794Z,71.50
2018-03-02T13:12:24.193Z,61.07
2018-03-02T13:14:51.625Z,56.80
2018-03-02T13:17:19.026Z,66.50
2018-03-02T13:19:46.457Z,59.00
2018-03-02T13:22:25.513Z,61.47
2018-03-02T13:24:52.927Z,66.10
2018-03-02T13:27:32.389Z,60.90
2018-03-02T13:29:59.816Z,59.03
2018-03-02T13:32:27.215Z,55.67
2018-03-02T13:35:17.482Z,62.33
2018-03-02T13:37:44.886Z,63.57
2018-03-02T13:40:24.183Z,55.80
2018-03-02T13:42:51.641Z,56.13
2018-03-02T13:45:19.048Z,58.10
2018-03-02T13:50:59.569Z,56.20
2018-03-02T13:53:26.979Z,59.50
2018-03-02T13:55:54.398Z,58.50
2018-03-02T13:58:21.795Z,59.10
2018-03-02T14:00:49.200Z,59.07
2018-03-02T14:03:28.408Z,55.80
2018-03-02T14:05:55.830Z,54.90
2018-03-02T14:08:23.246Z,59.33
2018-03-02T14:10:50.664Z,58.87
2018-03-02T14:13:18.070Z,60.77
2018-03-02T14:15:45.489Z,60.77
2018-03-02T14:18:12.901Z,60.63
2018-03-02T14:20:40.305Z,60.37
2018-03-02T14:23:07.720Z,59.67
2018-03-02T14:25:35.136Z,61.50
2018-03-02T14:28:02.556Z,56.00
2018-03-02T14:30:29.962Z,65.10
2018-03-02T14:32:57.969Z,60.00
2018-03-02T14:35:25.380Z,52.17
2018-03-02T14:37:52.800Z,57.87
2018-03-02T14:40:20.210Z,56.37
2018-03-02T14:42:48.391Z,56.60
2018-03-02T14:45:15.817Z,57.83
2018-03-02T14:47:43.227Z,54.80
2018-03-02T14:50:10.638Z,63.20
2018-03-02T14:52:38.061Z,59.60
2018-03-02T14:55:05.800Z,59.13
2018-03-02T14:57:33.202Z,58.97
2018-03-02T15:00:00.607Z,63.30
2018-03-02T15:02:28.782Z,65.72
2018-03-02T15:04:56.196Z,59.70
2018-03-02T15:07:23.615Z,56.20
2018-03-02T15:09:51.025Z,59.77
2018-03-02T15:12:18.440Z,53.43
2018-03-02T15:14:45.855Z,73.95
2018-03-02T15:17:13.265Z,66.20
2018-03-02T15:19:40.684Z,65.87
2018-03-02T15:22:08.099Z,61.40
2018-03-02T15:24:35.524Z,64.90
2018-03-02T15:27:02.927Z,62.83
2018-03-02T15:29:30.921Z,58.00
2018-03-02T15:31:58.328Z,56.50
2018-03-02T15:34:25.744Z,59.13
2018-03-02T15:36:53.154Z,63.87
2018-03-02T15:39:20.573Z,57.90
2018-03-02T15:41:47.976Z,60.67
2018-03-02T15:44:15.403Z,65.40
2018-03-02T15:46:42.801Z,57.90
2018-03-02T15:49:10.230Z,54.57
2018-03-02T15:51:37.638Z,60.73
2018-03-02T15:54:05.097Z,63.17
2018-03-02T15:56:32.506Z,62.45
2018-03-02T15:58:59.912Z,60.90
2018-03-02T16:01:27.326Z,59.53
2018-03-02T16:03:54.741Z,58.35
2018-03-02T16:06:22.149Z,62.30
2018-03-02T16:08:49.571Z,61.17
2018-03-02T16:11:16.967Z,61.55
2018-03-02T16:13:44.396Z,57.13
2018-03-02T16:16:11.805Z,59.83
2018-03-02T16:18:39.223Z,62.17
2018-03-02T16:21:06.644Z,60.75
2018-03-02T16:23:34.042Z,68.70
2018-03-02T16:26:01.469Z,64.70
2018-03-02T16:28:28.890Z,57.77
2018-03-02T16:30:56.309Z,67.27
2018-03-02T16:33:23.729Z,69.77
2018-03-02T16:35:51.141Z,59.80
2018-03-02T16:38:18.550Z,64.33
2018-03-02T16:40:45.967Z,63.27
2018-03-02T16:43:13.376Z,66.53
2018-03-02T16:45:40.797Z,59.23
2018-03-02T16:48:08.210Z,65.17
2018-03-02T16:50:35.632Z,68.00
2018-03-02T16:53:03.453Z,61.35
2018-03-02T16:55:30.870Z,61.93
2018-03-02T16:57:58.276Z,62.47
2018-03-02T17:00:25.697Z,66.27
2018-03-02T17:02:53.114Z,64.60
2018-03-02T17:05:20.530Z,66.57
2018-03-02T17:07:47.939Z,67.43
2018-03-02T17:10:15.352Z,59.63
2018-03-02T17:12:42.767Z,62.90
2018-03-02T17:15:10.190Z,62.50
2018-03-02T17:17:37.602Z,70.63
2018-03-02T17:20:05.027Z,70.00
2018-03-02T17:22:32.433Z,62.00
2018-03-02T17:24:59.852Z,59.27
2018-03-02T17:27:27.256Z,73.63
2018-03-02T17:29:54.673Z,70.37
2018-03-02T17:32:22.416Z,65.17
2018-03-02T17:34:50.512Z,70.57
2018-03-02T17:37:17.946Z,64.03
2018-03-02T17:39:45.362Z,59.97
2018-03-02T17:42:12.789Z,66.00
2018-03-02T17:44:40.202Z,63.70
2018-03-02T17:47:08.221Z,72.47
2018-03-02T17:49:35.629Z,68.10
2018-03-02T17:52:03.049Z,60.40
2018-03-02T17:54:30.459Z,62.75
2018-03-02T17:56:57.872Z,65.93
2018-03-02T17:59:25.300Z,69.53
2018-03-02T18:01:52.713Z,78.13
2018-03-02T18:04:20.114Z,71.50
2018-03-02T18:06:47.524Z,72.37
2018-03-02T18:09:14.930Z,67.53
2018-03-02T18:11:42.353Z,62.80
2018-03-02T18:14:09.761Z,64.73
2018-03-02T18:16:37.189Z,63.70
2018-03-02T18:19:04.599Z,74.30
2018-03-02T18:21:32.276Z,70.03
2018-03-02T18:24:00.379Z,72.37
2018-03-02T18:26:28.585Z,69.47
2018-03-02T18:28:56.001Z,57.90
2018-03-02T18:31:23.424Z,79.03
2018-03-02T18:33:50.839Z,82.40
2018-03-02T18:36:18.263Z,75.87
2018-03-02T18:38:45.685Z,78.40
2018-03-02T18:41:13.097Z,89.22
2018-03-02T18:43:40.521Z,80.00
2018-03-02T18:46:07.931Z,82.63
2018-03-02T18:48:35.342Z,92.90
2018-03-02T18:51:02.744Z,97.87
2018-03-02T18:53:30.168Z,87.13
2018-03-02T18:55:57.573Z,77.70
2018-03-02T18:58:24.997Z,85.27
2018-03-02T19:00:52.421Z,82.07
2018-03-02T19:03:19.864Z,79.20
2018-03-02T19:05:47.256Z,92.80
2018-03-02T19:08:14.685Z,87.87
2018-03-02T19:10:42.097Z,82.65
2018-03-02T19:13:09.519Z,88.23
2018-03-02T19:15:36.923Z,86.23
2018-03-02T19:18:04.336Z,81.30
2018-03-02T19:20:31.742Z,87.03
2018-03-02T19:22:59.160Z,91.80
2018-03-02T19:25:26.688Z,95.97
2018-03-02T19:27:54.109Z,99.37
2018-03-02T19:30:21.531Z,95.77
2018-03-02T19:32:48.948Z,103.95
2018-03-02T19:35:16.570Z,93.37
2018-03-02T19:37:43.990Z,98.83
2018-03-02T19:40:11.411Z,99.62
2018-03-02T19:42:39.589Z,107.53
2018-03-02T19:45:07.001Z,96.87
2018-03-02T19:47:34.432Z,88.87
2018-03-02T19:50:01.859Z,104.97
2018-03-02T19:52:29.296Z,105.93
2018-03-02T19:54:56.689Z,96.67
2018-03-02T19:57:24.105Z,106.47
2018-03-02T19:59:51.533Z,112.10
2018-03-02T20:02:18.956Z,115.07
2018-03-02T20:04:46.943Z,115.57
2018-03-02T20:07:14.346Z,115.62
2018-03-02T20:09:41.881Z,112.90
2018-03-02T20:12:09.190Z,110.50
2018-03-02T20:14:36.608Z,122.97
2018-03-02T20:17:04.905Z,103.27
2018-03-02T20:19:32.333Z,123.93
2018-03-02T20:21:59.748Z,127.37
2018-03-02T20:24:27.171Z,117.97
2018-03-02T20:26:54.578Z,135.20
2018-03-02T20:29:22.001Z,124.03
2018-03-02T20:31:49.418Z,114.60
2018-03-02T20:34:16.833Z,133.87
2018-03-02T20:36:44.253Z,124.60
2018-03-02T20:39:11.831Z,136.55
2018-03-02T20:41:39.236Z,132.27
2018-03-02T20:44:06.747Z,139.33
2018-03-02T20:46:34.193Z,144.27
2018-03-02T20:49:01.916Z,145.50
2018-03-02T20:51:29.313Z,131.37
2018-03-02T20:53:56.737Z,150.53
2018-03-02T20:56:24.149Z,153.00
2018-03-02T20:58:52.381Z,138.63
2018-03-02T21:01:20.724Z,156.40
2018-03-02T21:03:48.134Z,150.90
2018-03-02T21:06:15.557Z,137.53
2018-03-02T21:08:43.170Z,132.93
2018-03-02T21:11:10.582Z,150.37
2018-03-02T21:13:38.478Z,165.03
2018-03-02T21:16:05.914Z,161.20
2018-03-02T21:18:33.329Z,159.87
2018-03-02T21:21:00.750Z,156.03
2018-03-02T21:23:28.173Z,148.67
2018-03-02T21:25:55.597Z,141.17
2018-03-02T21:28:23.272Z,162.63
2018-03-02T21:30:50.680Z,149.13
2018-03-02T21:33:18.306Z,158.00
2018-03-02T21:35:45.733Z,147.90
2018-03-02T21:38:13.151Z,145.60
2018-03-02T21:40:41.191Z,156.03
2018-03-02T21:43:08.600Z,156.10
2018-03-02T21:45:36.018Z,157.30
2018-03-02T21:48:03.426Z,164.07
2018-03-02T21:50:30.858Z,167.55
2018-03-02T21:52:58.263Z,161.00
2018-03-02T21:55:25.686Z,139.83
2018-03-02T21:57:53.366Z,152.83
2018-03-02T22:02:38.393Z,151.25
2018-03-02T22:05:05.833Z,160.90
2018-03-02T22:07:33.234Z,153.90
2018-03-02T22:10:00.658Z,175.47
2018-03-02T22:12:28.073Z,154.00
2018-03-02T22:14:55.481Z,147.83
2018-03-02T22:17:22.916Z,156.57
2018-03-02T22:19:50.752Z,172.95
2018-03-02T22:22:18.166Z,170.70
2018-03-02T22:24:45.588Z,168.87
2018-03-02T22:27:13.005Z,166.30
2018-03-02T22:29:40.418Z,153.80
2018-03-02T22:32:07.846Z,160.37
2018-03-02T22:34:35.258Z,153.43
2018-03-02T22:37:02.698Z,163.20
2018-03-02T22:39:30.113Z,156.23
2018-03-02T22:41:57.541Z,144.60
2018-03-02T22:44:24.953Z,147.93
2018-03-02T22:46:52.367Z,163.87
2018-03-02T22:49:19.784Z,159.73
2018-03-02T22:51:47.997Z,156.98
2018-03-02T22:54:15.409Z,165.40
2018-03-02T22:56:42.833Z,180.30
2018-03-02T22:59:10.246Z,160.00
2018-03-02T23:01:37.671Z,181.80
2018-03-02T23:04:05.086Z,175.47
2018-03-02T23:06:32.508Z,176.40
2018-03-02T23:08:59.930Z,169.00
2018-03-02T23:11:27.361Z,170.40
2018-03-02T23:13:54.773Z,166.77
2018-03-02T23:16:22.196Z,185.07
2018-03-02T23:18:49.604Z,169.63
2018-03-02T23:21:17.023Z,161.57
2018-03-02T23:23:44.452Z,177.90
2018-03-02T23:26:12.978Z,169.50
2018-03-02T23:28:40.407Z,175.67
2018-03-02T23:31:07.820Z,173.68
2018-03-02T23:33:35.250Z,189.17
2018-03-02T23:36:02.670Z,172.80
2018-03-02T23:38:30.083Z,187.17
2018-03-02T23:40:57.492Z,184.07
2018-03-02T23:43:24.914Z,177.50
2018-03-02T23:45:52.341Z,171.17
2018-03-02T23:48:19.771Z,178.57
2018-03-02T23:50:47.172Z,184.33
2018-03-02T23:53:14.601Z,171.73
2018-03-02T23:55:42.021Z,166.73
2018-03-02T23:58:09.441Z,180.67
